createdAt,value
2018-06-01T00:01:03.987Z,14.10
2018-06-01T00:03:32.540Z,13.20
2018-06-01T00:06:00.841Z,13.73
2018-06-01T00:08:30.119Z,12.40
2018-06-01T00:10:58.453Z,13.37
2018-06-01T00:13:26.710Z,12.83
2018-06-01T00:15:55.024Z,14.00
2018-06-01T00:18:24.066Z,13.80
2018-06-01T00:20:52.422Z,14.60
2018-06-01T00:23:20.702Z,13.50
2018-06-01T00:25:48.996Z,13.50
2018-06-01T00:28:17.286Z,13.17
2018-06-01T00:30:45.692Z,14.30
2018-06-01T00:33:27.263Z,13.90
2018-06-01T00:35:55.559Z,13.40
2018-06-01T00:38:23.818Z,13.90
2018-06-01T00:40:52.136Z,13.40
2018-06-01T00:43:21.407Z,14.70
2018-06-01T00:48:49.808Z,13.50
2018-06-01T00:51:18.322Z,12.50
2018-06-01T00:53:46.643Z,13.73
2018-06-01T00:56:15.017Z,12.77
2018-06-01T00:58:43.727Z,13.03
2018-06-01T01:01:12.089Z,13.73
2018-06-01T01:03:40.453Z,14.07
2018-06-01T01:06:08.906Z,13.40
2018-06-01T01:08:37.199Z,13.77
2018-06-01T01:11:06.724Z,13.87
2018-06-01T01:13:35.004Z,13.63
2018-06-01T01:16:03.302Z,14.80
2018-06-01T01:18:31.598Z,15.23
2018-06-01T01:20:59.922Z,15.10
2018-06-01T01:23:28.882Z,13.90
2018-06-01T01:25:57.402Z,14.37
2018-06-01T01:28:25.657Z,13.20
2018-06-01T01:30:54.005Z,14.67
2018-06-01T01:33:22.306Z,14.87
2018-06-01T01:35:50.591Z,13.90
2018-06-01T01:38:21.617Z,14.53
2018-06-01T01:41:05.573Z,15.80
2018-06-01T01:43:34.174Z,14.10
2018-06-01T01:46:02.445Z,14.20
2018-06-01T01:48:30.761Z,14.53
2018-06-01T01:50:59.320Z,14.40
2018-06-01T01:53:27.727Z,13.60
2018-06-01T01:55:55.981Z,13.60
2018-06-01T01:58:24.251Z,14.23
2018-06-01T02:00:52.550Z,14.27
2018-06-01T02:03:21.751Z,14.37
2018-06-01T02:05:50.035Z,14.50
2018-06-01T02:08:19.077Z,13.83
2018-06-01T02:10:47.392Z,13.80
2018-06-01T02:13:15.657Z,13.43
2018-06-01T02:15:43.963Z,14.70
2018-06-01T02:18:12.228Z,13.70
2018-06-01T02:20:40.505Z,13.93
2018-06-01T02:23:09.999Z,13.63
2018-06-01T02:25:38.306Z,14.57
2018-06-01T02:28:07.393Z,13.80
2018-06-01T02:30:36.547Z,13.80
2018-06-01T02:33:05.105Z,13.63
2018-06-01T02:35:33.419Z,15.10
2018-06-01T02:38:01.734Z,13.10
2018-06-01T02:40:30.006Z,13.40
2018-06-01T02:42:58.281Z,13.07
2018-06-01T02:45:26.601Z,13.40
2018-06-01T02:48:07.620Z,14.67
2018-06-01T02:50:36.846Z,14.57
2018-06-01T02:53:05.148Z,13.40
2018-06-01T02:55:33.479Z,14.93
2018-06-01T02:58:02.506Z,13.27
2018-06-01T03:00:30.773Z,14.17
2018-06-01T03:02:59.749Z,13.93
2018-06-01T03:05:28.013Z,14.50
2018-06-01T03:07:57.091Z,15.30
2018-06-01T03:10:25.380Z,13.83
2018-06-01T03:12:55.699Z,14.17
2018-06-01T03:15:24.205Z,14.80
2018-06-01T03:17:52.484Z,14.00
2018-06-01T03:20:20.855Z,14.93
2018-06-01T03:22:49.196Z,14.13
2018-06-01T03:25:17.561Z,14.10
2018-06-01T03:27:45.861Z,13.10
2018-06-01T03:30:14.152Z,14.57
2018-06-01T03:32:42.416Z,13.40
2018-06-01T03:35:10.693Z,14.47
2018-06-01T03:37:39.247Z,14.57
2018-06-01T03:40:08.436Z,14.53
2018-06-01T03:42:36.706Z,14.83
2018-06-01T03:45:05.752Z,14.37
2018-06-01T03:47:34.057Z,14.13
2018-06-01T03:50:02.342Z,15.10
2018-06-01T03:55:30.644Z,13.80
2018-06-01T03:57:59.061Z,13.80
2018-06-01T04:00:32.553Z,14.37
2018-06-01T04:03:00.936Z,13.30
2018-06-01T04:05:29.152Z,13.23
2018-06-01T04:07:57.502Z,13.37
2018-06-01T04:10:25.780Z,12.93
2018-06-01T04:12:54.949Z,12.60
2018-06-01T04:15:24.359Z,13.07
2018-06-01T04:17:55.360Z,13.63
2018-06-01T04:20:24.494Z,12.00
2018-06-01T04:22:52.771Z,13.53
2018-06-01T04:25:21.070Z,13.17
2018-06-01T04:27:49.630Z,12.87
2018-06-01T04:30:18.690Z,13.23
2018-06-01T04:32:47.062Z,12.53
2018-06-01T04:35:15.340Z,13.40
2018-06-01T04:37:43.638Z,12.80
2018-06-01T04:40:11.904Z,12.20
2018-06-01T04:42:40.308Z,11.70
2018-06-01T04:45:09.360Z,12.13
2018-06-01T04:47:37.663Z,10.90
2018-06-01T04:50:06.281Z,11.03
2018-06-01T04:52:35.362Z,12.20
2018-06-01T04:55:08.211Z,12.10
2018-06-01T04:57:36.529Z,11.37
2018-06-01T05:00:04.862Z,11.07
2018-06-01T05:02:33.192Z,11.47
2018-06-01T05:05:01.527Z,11.37
2018-06-01T05:07:29.957Z,10.80
2018-06-01T05:09:58.243Z,11.67
2018-06-01T05:12:26.567Z,10.73
2018-06-01T05:14:55.122Z,10.80
2018-06-01T05:17:23.417Z,10.90
2018-06-01T05:19:52.166Z,10.40
2018-06-01T05:22:21.442Z,10.37
2018-06-01T05:24:54.709Z,10.50
2018-06-01T05:27:24.933Z,9.60
2018-06-01T05:29:53.325Z,11.27
2018-06-01T05:32:21.636Z,11.03
2018-06-01T05:34:55.362Z,10.73
2018-06-01T05:37:23.643Z,10.63
2018-06-01T05:39:51.932Z,9.80
2018-06-01T05:42:20.251Z,9.13
2018-06-01T05:44:48.547Z,9.30
2018-06-01T05:47:16.924Z,9.97
2018-06-01T05:49:45.173Z,9.40
2018-06-01T05:52:13.464Z,9.67
2018-06-01T05:54:42.522Z,9.00
2018-06-01T05:57:10.793Z,8.73
2018-06-01T05:59:39.078Z,9.40
2018-06-01T06:02:08.150Z,12.00
2018-06-01T06:04:37.213Z,8.73
2018-06-01T06:07:05.477Z,10.43
2018-06-01T06:09:52.210Z,9.70
2018-06-01T06:12:21.144Z,9.50
2018-06-01T06:14:49.465Z,10.13
2018-06-01T06:17:17.773Z,9.53
2018-06-01T06:19:47.108Z,9.30
2018-06-01T06:22:19.877Z,9.80
2018-06-01T06:24:48.192Z,9.50
2018-06-01T06:27:16.473Z,10.03
2018-06-01T06:29:44.741Z,9.97
2018-06-01T06:32:13.034Z,10.07
2018-06-01T06:34:41.306Z,9.60
2018-06-01T06:37:15.317Z,11.07
2018-06-01T06:39:44.310Z,11.43
2018-06-01T06:42:12.594Z,11.80
2018-06-01T06:44:40.869Z,11.83
2018-06-01T06:47:09.231Z,13.07
2018-06-01T06:49:42.769Z,12.90
2018-06-01T06:52:34.305Z,12.63
2018-06-01T06:55:12.660Z,13.40
2018-06-01T06:57:40.936Z,12.70
2018-06-01T07:00:10.232Z,12.70
2018-06-01T07:02:38.578Z,12.30
2018-06-01T07:05:06.867Z,12.10
2018-06-01T07:07:35.257Z,12.70
2018-06-01T07:10:04.131Z,11.43
2018-06-01T07:12:32.451Z,11.50
2018-06-01T07:15:00.743Z,12.50
2018-06-01T07:17:29.885Z,11.40
2018-06-01T07:19:58.653Z,11.50
2018-06-01T07:22:26.923Z,11.30
2018-06-01T07:24:55.265Z,11.43
2018-06-01T07:27:23.569Z,12.50
2018-06-01T07:29:56.291Z,12.40
2018-06-01T07:32:24.578Z,13.17
2018-06-01T07:34:53.605Z,11.87
2018-06-01T07:37:21.950Z,11.30
2018-06-01T07:39:50.212Z,11.37
2018-06-01T07:42:18.750Z,12.00
2018-06-01T07:44:47.925Z,10.50
2018-06-01T07:47:16.977Z,10.90
2018-06-01T07:49:46.004Z,10.40
2018-06-01T07:52:14.292Z,11.13
2018-06-01T07:54:43.342Z,10.27
2018-06-01T07:57:11.653Z,11.33
2018-06-01T07:59:40.005Z,11.43
2018-06-01T08:02:09.377Z,12.03
2018-06-01T08:04:37.643Z,11.73
2018-06-01T08:07:05.913Z,11.00
2018-06-01T08:09:35.268Z,11.43
2018-06-01T08:12:03.560Z,12.10
2018-06-01T08:14:31.948Z,11.13
2018-06-01T08:17:00.422Z,10.10
2018-06-01T08:19:33.696Z,10.60
2018-06-01T08:22:02.281Z,11.10
2018-06-01T08:24:30.596Z,10.10
2018-06-01T08:26:58.941Z,11.60
2018-06-01T08:29:27.965Z,11.53
2018-06-01T08:31:56.277Z,12.07
2018-06-01T08:34:24.564Z,9.80
2018-06-01T08:36:52.876Z,12.03
2018-06-01T08:39:24.090Z,11.63
2018-06-01T08:41:52.334Z,12.33
2018-06-01T08:44:21.141Z,11.80
2018-06-01T08:46:49.447Z,10.37
2018-06-01T08:49:17.821Z,10.80
2018-06-01T08:51:56.325Z,11.43
2018-06-01T08:54:24.589Z,11.07
2018-06-01T08:56:55.573Z,11.20
2018-06-01T08:59:28.554Z,11.13
2018-06-01T09:01:56.866Z,9.87
2018-06-01T09:04:25.129Z,8.97
2018-06-01T09:06:53.441Z,12.23
2018-06-01T09:09:22.492Z,11.50
2018-06-01T09:11:50.795Z,10.63
2018-06-01T09:14:19.068Z,11.17
2018-06-01T09:16:47.438Z,12.00
2018-06-01T09:19:15.687Z,11.77
2018-06-01T09:21:44.012Z,11.27
2018-06-01T09:24:13.194Z,11.30
2018-06-01T09:26:41.508Z,11.43
2018-06-01T09:29:10.562Z,12.17
2018-06-01T09:31:38.875Z,11.10
2018-06-01T09:34:07.161Z,11.10
2018-06-01T09:36:35.475Z,12.90
2018-06-01T09:39:03.749Z,11.33
2018-06-01T09:41:32.070Z,11.70
2018-06-01T09:44:00.358Z,12.70
2018-06-01T09:46:28.635Z,12.50
2018-06-01T09:48:56.925Z,12.50
2018-06-01T09:51:25.970Z,12.17
2018-06-01T09:53:54.332Z,11.30
2018-06-01T09:56:22.774Z,11.77
2018-06-01T09:58:51.068Z,11.70
2018-06-01T10:01:26.773Z,12.77
2018-06-01T10:03:55.089Z,12.70
2018-06-01T10:06:23.485Z,10.80
2018-06-01T10:08:52.539Z,11.93
2018-06-01T10:11:20.812Z,11.23
2018-06-01T10:13:49.103Z,10.00
2018-06-01T10:16:18.404Z,10.17
2018-06-01T10:18:46.815Z,10.60
2018-06-01T10:21:21.630Z,10.70
2018-06-01T10:23:49.914Z,11.30
2018-06-01T10:26:18.169Z,10.67
2018-06-01T10:28:46.511Z,10.93
2018-06-01T10:31:14.821Z,11.70
2018-06-01T10:33:43.214Z,10.67
2018-06-01T10:36:11.573Z,10.87
2018-06-01T10:38:39.932Z,11.90
2018-06-01T10:41:08.204Z,10.97
2018-06-01T10:43:36.507Z,11.17
2018-06-01T10:46:04.905Z,11.60
2018-06-01T10:48:33.328Z,10.43
2018-06-01T10:51:02.585Z,10.60
2018-06-01T10:53:30.912Z,11.67
2018-06-01T10:55:59.218Z,10.80
2018-06-01T10:58:27.539Z,11.40
2018-06-01T11:00:55.986Z,11.73
2018-06-01T11:03:24.280Z,10.07
2018-06-01T11:05:54.561Z,11.20
2018-06-01T11:08:22.864Z,12.03
2018-06-01T11:10:51.137Z,11.90
2018-06-01T11:13:21.420Z,11.13
2018-06-01T11:15:49.650Z,11.80
2018-06-01T11:18:17.939Z,12.30
2018-06-01T11:20:46.258Z,11.87
2018-06-01T11:23:14.588Z,11.20
2018-06-01T11:25:43.866Z,11.33
2018-06-01T11:28:12.202Z,11.67
2018-06-01T11:30:40.485Z,12.10
2018-06-01T11:33:08.738Z,11.03
2018-06-01T11:35:37.049Z,12.20
2018-06-01T11:38:06.091Z,12.40
2018-06-01T11:40:34.479Z,12.53
2018-06-01T11:43:02.727Z,13.07
2018-06-01T11:45:31.022Z,12.67
2018-06-01T11:47:59.298Z,12.13
2018-06-01T11:50:27.633Z,13.20
2018-06-01T11:52:56.689Z,13.77
2018-06-01T11:55:24.985Z,13.67
2018-06-01T11:57:53.281Z,12.40
2018-06-01T12:00:21.637Z,12.10
2018-06-01T12:02:50.698Z,11.63
2018-06-01T12:05:19.117Z,11.63
2018-06-01T12:07:47.439Z,11.73
2018-06-01T12:10:16.519Z,11.60
2018-06-01T12:12:44.830Z,11.87
2018-06-01T12:15:13.165Z,13.07
2018-06-01T12:17:41.508Z,12.50
2018-06-01T12:20:09.770Z,12.30
2018-06-01T12:22:38.084Z,12.47
2018-06-01T12:25:06.379Z,14.50
2018-06-01T12:27:36.768Z,12.40
2018-06-01T12:30:05.079Z,11.57
2018-06-01T12:32:33.352Z,11.57
2018-06-01T12:35:01.660Z,10.37
2018-06-01T12:37:30.775Z,11.63
2018-06-01T12:39:59.083Z,10.67
2018-06-01T12:42:27.392Z,9.83
2018-06-01T12:44:55.720Z,9.70
2018-06-01T12:47:24.001Z,10.30
2018-06-01T12:49:52.416Z,9.40
2018-06-01T12:52:20.687Z,9.10
2018-06-01T12:54:48.993Z,10.40
2018-06-01T12:57:17.728Z,10.10
2018-06-01T12:59:46.051Z,9.87
2018-06-01T13:02:15.315Z,10.20
2018-06-01T13:04:46.709Z,11.77
2018-06-01T13:07:15.036Z,9.23
2018-06-01T13:09:43.799Z,7.80
2018-06-01T13:12:12.065Z,6.10
2018-06-01T13:14:40.342Z,6.23
2018-06-01T13:17:09.714Z,5.67
2018-06-01T13:19:44.633Z,5.50
2018-06-01T13:22:12.927Z,6.90
2018-06-01T13:24:41.190Z,4.90
2018-06-01T13:27:09.505Z,5.73
2018-06-01T13:29:37.907Z,6.40
2018-06-01T13:32:06.999Z,7.03
2018-06-01T13:34:37.213Z,8.23
2018-06-01T13:37:05.484Z,9.50
2018-06-01T13:39:33.942Z,12.00
2018-06-01T13:42:08.355Z,10.10
2018-06-01T13:44:38.090Z,11.90
2018-06-01T13:47:09.561Z,12.03
2018-06-01T13:49:37.979Z,13.77
2018-06-01T13:52:06.461Z,13.07
2018-06-01T13:54:43.091Z,13.40
2018-06-01T13:57:12.069Z,12.87
2018-06-01T13:59:40.676Z,13.50
2018-06-01T14:02:09.808Z,13.37
2018-06-01T14:04:43.144Z,14.20
2018-06-01T14:07:15.608Z,13.70
2018-06-01T14:09:50.279Z,14.33
2018-06-01T14:12:22.939Z,15.20
2018-06-01T14:15:16.416Z,14.73
2018-06-01T14:17:45.935Z,16.03
2018-06-01T14:20:15.528Z,15.77
2018-06-01T14:22:45.364Z,13.60
2018-06-01T14:25:14.109Z,13.27
2018-06-01T14:27:43.820Z,15.00
2018-06-01T14:30:13.714Z,14.23
2018-06-01T14:32:42.550Z,13.13
2018-06-01T14:35:24.127Z,12.83
2018-06-01T14:37:55.267Z,10.90
2018-06-01T14:40:31.286Z,10.37
2018-06-01T14:43:02.880Z,10.10
2018-06-01T14:45:33.166Z,10.70
2018-06-01T14:48:02.306Z,10.63
2018-06-01T14:50:32.305Z,10.10
2018-06-01T14:53:02.245Z,10.80
2018-06-01T14:55:39.295Z,9.90
2018-06-01T14:58:11.382Z,10.47
2018-06-01T15:00:44.345Z,10.03
2018-06-01T15:03:22.913Z,9.83
2018-06-01T15:05:58.224Z,8.50
2018-06-01T15:08:28.532Z,7.87
2018-06-01T15:11:01.932Z,8.00
2018-06-01T15:13:35.568Z,6.33
2018-06-01T15:16:10.461Z,6.83
2018-06-01T15:18:43.986Z,7.63
2018-06-01T15:21:14.631Z,8.03
2018-06-01T15:23:48.827Z,6.57
2018-06-01T15:26:19.280Z,6.07
2018-06-01T15:28:56.405Z,5.80
2018-06-01T15:31:32.150Z,5.70
2018-06-01T15:37:23.224Z,7.73
2018-06-01T15:43:32.511Z,6.10
2018-06-01T15:52:26.587Z,6.17
2018-06-01T15:54:56.703Z,5.43
2018-06-01T15:57:30.590Z,5.40
2018-06-01T16:00:00.900Z,5.80
2018-06-01T16:02:29.214Z,5.73
2018-06-01T16:04:57.559Z,6.77
2018-06-01T16:07:25.976Z,6.90
2018-06-01T16:09:54.283Z,7.47
2018-06-01T16:12:22.592Z,7.70
2018-06-01T16:14:50.935Z,8.17
2018-06-01T16:17:26.528Z,8.30
2018-06-01T16:19:56.876Z,7.87
2018-06-01T16:22:25.324Z,9.30
2018-06-01T16:24:54.870Z,8.07
2018-06-01T16:27:28.518Z,9.30
2018-06-01T16:29:58.365Z,11.80
2018-06-01T16:32:26.855Z,13.07
2018-06-01T16:34:55.252Z,11.77
2018-06-01T16:37:24.965Z,10.87
2018-06-01T16:40:01.411Z,10.87
2018-06-01T16:42:33.869Z,11.00
2018-06-01T16:45:02.223Z,11.37
2018-06-01T16:47:34.198Z,13.07
2018-06-01T16:50:02.876Z,14.60
2018-06-01T16:52:31.330Z,14.40
2018-06-01T16:55:02.435Z,16.17
2018-06-01T16:57:30.891Z,16.10
2018-06-01T16:59:59.898Z,14.00
2018-06-01T17:02:28.474Z,14.30
2018-06-01T17:04:58.764Z,14.20
2018-06-01T17:07:29.036Z,14.57
2018-06-01T17:09:57.355Z,14.00
2018-06-01T17:12:25.636Z,15.93
2018-06-01T17:14:53.953Z,16.87
2018-06-01T17:17:22.637Z,17.60
2018-06-01T17:20:00.326Z,17.87
2018-06-01T17:22:29.616Z,17.87
2018-06-01T17:25:19.767Z,18.90
2018-06-01T17:27:48.037Z,16.13
2018-06-01T17:30:16.362Z,15.50
2018-06-01T17:32:45.888Z,15.80
2018-06-01T17:35:15.765Z,17.00
2018-06-01T17:37:44.358Z,14.50
2018-06-01T17:40:14.736Z,15.50
2018-06-01T17:42:48.994Z,15.77
2018-06-01T17:45:17.591Z,16.27
2018-06-01T17:47:46.034Z,17.67
2018-06-01T17:50:14.431Z,15.90
2018-06-01T17:52:42.711Z,14.77
2018-06-01T17:55:11.251Z,16.10
2018-06-01T17:57:39.710Z,15.10
2018-06-01T18:00:08.301Z,14.33
2018-06-01T18:02:36.614Z,15.70
2018-06-01T18:05:04.942Z,18.70
2018-06-01T18:07:34.025Z,14.90
2018-06-01T18:10:02.436Z,19.13
2018-06-01T18:12:31.931Z,16.60
2018-06-01T18:15:01.240Z,15.87
2018-06-01T18:17:30.567Z,16.60
2018-06-01T18:19:58.946Z,18.63
2018-06-01T18:22:27.583Z,17.67
2018-06-01T18:24:55.956Z,16.57
2018-06-01T18:30:06.892Z,16.93
2018-06-01T18:32:37.551Z,16.63
2018-06-01T18:35:08.240Z,16.87
2018-06-01T18:37:37.588Z,17.20
2018-06-01T18:40:06.035Z,18.00
2018-06-01T18:42:34.725Z,16.97
2018-06-01T18:45:03.797Z,18.13
2018-06-01T18:47:32.571Z,16.27
2018-06-01T18:50:01.516Z,17.10
2018-06-01T18:52:30.331Z,16.80
2018-06-01T18:54:58.724Z,16.73
2018-06-01T18:57:30.014Z,17.53
2018-06-01T19:00:04.547Z,16.70
2018-06-01T19:02:34.587Z,17.10
2018-06-01T19:05:04.029Z,16.47
2018-06-01T19:07:33.528Z,17.27
2018-06-01T19:10:02.993Z,17.63
2018-06-01T19:12:31.300Z,19.70
2018-06-01T19:14:59.765Z,19.10
2018-06-01T19:17:29.823Z,17.60
2018-06-01T19:20:02.161Z,19.10
2018-06-01T19:22:30.620Z,16.63
2018-06-01T19:24:59.445Z,16.03
2018-06-01T19:27:27.916Z,16.47
2018-06-01T19:29:58.315Z,17.03
2018-06-01T19:32:26.825Z,16.10
2018-06-01T19:34:55.200Z,16.93
2018-06-01T19:37:24.868Z,17.50
2018-06-01T19:39:53.692Z,16.77
2018-06-01T19:42:22.948Z,16.10
2018-06-01T19:44:51.778Z,14.93
2018-06-01T19:47:20.449Z,17.10
2018-06-01T19:49:49.278Z,16.60
2018-06-01T19:52:37.662Z,15.57
2018-06-01T19:55:08.429Z,16.20
2018-06-01T19:57:39.551Z,16.63
2018-06-01T20:00:08.036Z,15.60
2018-06-01T20:02:36.821Z,17.17
2018-06-01T20:05:13.712Z,16.20
2018-06-01T20:07:42.334Z,17.20
2018-06-01T20:10:11.538Z,17.33
2018-06-01T20:15:29.843Z,16.20
2018-06-01T20:18:17.899Z,17.70
2018-06-01T20:20:50.462Z,17.87
2018-06-01T20:23:23.539Z,17.70
2018-06-01T20:25:52.251Z,16.60
2018-06-01T20:28:24.908Z,16.27
2018-06-01T20:30:59.069Z,16.27
2018-06-01T20:33:35.412Z,17.93
2018-06-01T20:38:41.589Z,18.10
2018-06-01T20:41:10.920Z,17.00
2018-06-01T20:43:40.071Z,17.27
2018-06-01T20:46:08.365Z,17.10
2018-06-01T20:48:36.782Z,18.43
2018-06-01T20:51:06.233Z,19.20
2018-06-01T20:53:37.024Z,19.87
2018-06-01T20:56:10.737Z,19.60
2018-06-01T20:58:39.204Z,20.87
2018-06-01T21:01:08.692Z,18.07
2018-06-01T21:03:39.230Z,17.53
2018-06-01T21:06:10.362Z,17.03
2018-06-01T21:08:38.735Z,18.33
2018-06-01T21:11:07.036Z,18.40
2018-06-01T21:13:39.885Z,17.40
2018-06-01T21:16:14.614Z,17.10
2018-06-01T21:18:47.551Z,17.77
2018-06-01T21:21:17.877Z,16.53
2018-06-01T21:23:46.517Z,18.50
2018-06-01T21:26:18.571Z,17.37
2018-06-01T21:28:46.979Z,17.57
2018-06-01T21:31:15.307Z,17.33
2018-06-01T21:33:45.538Z,21.03
2018-06-01T21:36:20.824Z,19.03
2018-06-01T21:38:49.312Z,17.47
2018-06-01T21:41:17.628Z,18.80
2018-06-01T21:43:46.208Z,17.00
2018-06-01T21:46:15.467Z,17.77
2018-06-01T21:48:44.227Z,17.73
2018-06-01T21:51:12.672Z,18.30
2018-06-01T21:53:42.656Z,17.70
2018-06-01T21:56:21.981Z,18.00
2018-06-01T21:58:50.838Z,17.57
2018-06-01T22:01:19.599Z,17.87
2018-06-01T22:03:49.956Z,18.23
2018-06-01T22:06:18.337Z,19.10
2018-06-01T22:08:47.734Z,27.67
2018-06-01T22:11:16.087Z,16.27
2018-06-01T22:13:44.452Z,18.37
2018-06-01T22:16:12.922Z,18.90
2018-06-01T22:18:41.321Z,18.20
2018-06-01T22:21:10.479Z,19.30
2018-06-01T22:23:38.807Z,19.40
2018-06-01T22:26:07.197Z,21.57
2018-06-01T22:28:35.711Z,19.50
2018-06-01T22:31:04.150Z,19.00
2018-06-01T22:33:32.495Z,19.57
2018-06-01T22:36:00.895Z,19.47
2018-06-01T22:38:29.222Z,21.73
2018-06-01T22:40:57.718Z,18.47
2018-06-01T22:43:27.566Z,18.40
2018-06-01T22:45:56.240Z,19.50
2018-06-01T22:48:24.677Z,20.50
2018-06-01T22:50:53.127Z,21.30
2018-06-01T22:53:22.266Z,21.30
2018-06-01T22:55:50.583Z,22.20
2018-06-01T22:58:18.984Z,21.30
2018-06-01T23:00:48.253Z,21.40
2018-06-01T23:03:16.669Z,20.87
2018-06-01T23:05:44.968Z,20.73
2018-06-01T23:08:14.027Z,20.57
2018-06-01T23:10:44.308Z,19.50
2018-06-01T23:13:12.586Z,19.23
2018-06-01T23:15:40.939Z,18.37
2018-06-01T23:18:10.038Z,20.20
2018-06-01T23:20:39.200Z,20.00
2018-06-01T23:23:07.677Z,19.73
2018-06-01T23:25:37.034Z,18.90
2018-06-01T23:28:05.653Z,20.10
2018-06-01T23:30:34.289Z,17.77
2018-06-01T23:33:03.066Z,18.80
2018-06-01T23:35:31.539Z,21.30
2018-06-01T23:37:59.919Z,19.70
2018-06-01T23:40:28.274Z,19.27
2018-06-01T23:42:56.588Z,19.87
2018-06-01T23:45:25.182Z,19.53
2018-06-01T23:47:53.505Z,20.00
2018-06-01T23:50:23.705Z,18.80
2018-06-01T23:52:52.872Z,20.60
2018-06-01T23:55:21.967Z,20.10
2018-06-01T23:57:50.360Z,19.30
